Time;durP1;ratioP1;P1;durP2;ratioP2;P2;SDS_P1;SDS_P2;PMS_P1;PMS_P2;Temp;Humidity;BMP_temperature;BMP_pressure;BME280_temperature;BME280_humidity;BME280_pressure;Samples;Min_cycle;Max_cycle;Signal;HPM_P1;HPM_P2
2023/01/23 00:02:28;;;;;;;6.03;4.80;;;10.30;99.90;;;10.28;68.29;95348.97;5090672;28;20576;-59
2023/01/23 00:04:55;;;;;;;10.87;4.37;;;10.30;99.90;;;10.28;68.39;95340.28;5091882;28;20882;-57
2023/01/23 00:07:22;;;;;;;9.23;4.60;;;10.30;99.90;;;10.22;68.32;95342.47;5093303;28;20465;-55
2023/01/23 00:09:50;;;;;;;7.13;4.60;;;10.30;99.90;;;10.20;68.41;95361.94;5089134;28;20457;-55
2023/01/23 00:12:17;;;;;;;7.57;4.63;;;10.20;99.90;;;10.18;68.31;95371.75;5093628;28;20968;-59
2023/01/23 00:14:44;;;;;;;5.10;4.70;;;10.20;99.90;;;10.16;68.51;95366.63;5090433;28;21258;-60
2023/01/23 00:17:12;;;;;;;8.83;4.80;;;10.20;99.90;;;10.15;68.36;95374.63;5093483;28;20449;-61
2023/01/23 00:19:40;;;;;;;4.20;3.87;;;10.20;99.90;;;10.13;68.38;95374.75;5091503;28;20477;-56
2023/01/23 00:22:08;;;;;;;8.10;4.90;;;10.10;99.90;;;10.13;68.42;95369.50;5093249;28;20476;-55
2023/01/23 00:24:35;;;;;;;5.50;4.10;;;10.20;99.90;;;10.12;68.48;95359.94;5089070;28;20497;-62
2023/01/23 00:27:02;;;;;;;11.30;5.33;;;10.10;99.90;;;10.13;68.45;95358.97;5085887;28;20461;-55
2023/01/23 00:29:29;;;;;;;4.60;4.07;;;10.20;99.90;;;10.15;68.60;95356.22;5091205;28;20535;-55
2023/01/23 00:31:57;;;;;;;5.53;4.40;;;10.20;99.90;;;10.18;68.32;95361.25;5094180;28;20539;-60
2023/01/23 00:34:24;;;;;;;5.07;4.53;;;10.20;99.90;;;10.18;68.17;95362.06;5090819;28;20474;-59
2023/01/23 00:36:52;;;;;;;7.60;4.40;;;10.20;99.90;;;10.20;68.33;95364.56;5092045;28;21002;-59
2023/01/23 00:39:22;;;;;;;7.60;4.70;;;10.20;99.90;;;10.22;68.14;95378.41;5090188;28;20462;-59
2023/01/23 00:41:50;;;;;;;5.40;5.00;;;10.20;99.90;;;10.25;68.11;95377.34;5092035;28;20449;-56
2023/01/23 00:44:17;;;;;;;5.57;5.17;;;10.20;99.90;;;10.25;68.01;95378.16;5092502;28;20497;-56
2023/01/23 00:46:44;;;;;;;7.37;5.07;;;10.20;99.90;;;10.26;68.04;95385.09;5090916;28;20831;-55
2023/01/23 00:49:12;;;;;;;10.17;5.00;;;10.30;99.90;;;10.26;68.12;95379.84;5092703;28;20473;-58
2023/01/23 00:51:39;;;;;;;7.30;5.00;;;10.30;99.90;;;10.26;67.87;95387.72;5089621;28;20460;-60
2023/01/23 00:54:08;;;;;;;7.40;5.10;;;10.30;99.90;;;10.26;67.96;95379.00;5091155;28;21012;-57
2023/01/23 00:56:35;;;;;;;6.93;5.63;;;10.30;99.90;;;10.26;67.80;95381.63;5088251;28;20538;-60
2023/01/23 00:59:02;;;;;;;5.93;5.30;;;10.30;99.90;;;10.25;67.84;95379.97;5094090;28;20521;-54
2023/01/23 01:01:31;;;;;;;8.90;5.73;;;10.30;99.90;;;10.26;67.80;95385.09;5090346;28;20458;-58
2023/01/23 01:03:58;;;;;;;6.37;4.60;;;10.30;99.90;;;10.26;67.95;95376.38;5092064;28;20494;-57
2023/01/23 01:06:26;;;;;;;8.43;5.43;;;10.30;99.90;;;10.24;67.90;95376.50;5090824;28;20465;-60
2023/01/23 01:08:53;;;;;;;7.33;5.93;;;10.30;99.90;;;10.23;67.84;95364.31;5087051;28;20478;-55
2023/01/23 01:11:22;;;;;;;8.37;5.10;;;10.20;99.90;;;10.21;68.13;95361.00;5090965;28;20522;-58
2023/01/23 01:13:49;;;;;;;9.67;5.00;;;10.20;99.90;;;10.19;67.79;95360.25;5092029;28;20481;-55
2023/01/23 01:16:16;;;;;;;8.80;5.10;;;10.20;99.90;;;10.16;67.99;95368.38;5090658;28;21041;-56
2023/01/23 01:18:43;;;;;;;6.30;4.17;;;10.20;99.90;;;10.14;67.98;95379.03;5088836;28;20473;-57
2023/01/23 01:21:13;;;;;;;5.20;4.60;;;10.20;99.90;;;10.12;68.16;95380.97;5090305;28;20474;-55
2023/01/23 01:23:40;;;;;;;8.73;4.70;;;10.10;99.90;;;10.10;68.19;95387.28;5088621;28;21005;-59
2023/01/23 01:26:08;;;;;;;6.20;4.80;;;10.10;99.90;;;10.10;68.15;95393.41;5090331;28;20450;-58
2023/01/23 01:28:38;;;;;;;4.60;4.20;;;10.10;99.90;;;10.08;68.21;95395.28;5088577;28;20474;-57
2023/01/23 01:31:07;;;;;;;7.53;4.73;;;10.10;99.90;;;10.09;68.48;95409.28;5090047;28;20537;-59
2023/01/23 01:33:35;;;;;;;14.20;4.97;;;10.10;99.90;;;10.10;68.57;95405.69;5089874;28;20474;-59
2023/01/23 01:36:02;;;;;;;5.07;4.60;;;10.10;99.90;;;10.10;68.21;95409.16;5090768;28;20472;-56
2023/01/23 01:38:29;;;;;;;9.90;6.03;;;10.10;99.90;;;10.10;68.28;95400.44;5089280;28;20539;-59
2023/01/23 01:40:57;;;;;;;11.03;5.53;;;10.10;99.90;;;10.10;68.46;95397.81;5084706;28;20528;-57
2023/01/23 01:43:26;;;;;;;6.33;4.80;;;10.10;99.90;;;10.11;68.63;95396.84;5088848;28;21044;-58
2023/01/23 01:46:18;;;;;;;9.40;5.33;;;10.10;99.90;;;10.12;68.91;95393.28;5091246;28;20465;-55
2023/01/23 01:48:51;;;;;;;10.53;6.30;;;10.10;99.90;;;10.13;68.46;95390.53;5090431;28;20572;-59
2023/01/23 01:51:24;;;;;;;10.50;5.67;;;10.10;99.90;;;10.14;68.83;95399.22;5090999;28;20533;-59
2023/01/23 01:53:57;;;;;;;10.33;5.57;;;10.10;99.90;;;10.13;68.67;95390.53;5090778;28;20504;-56
2023/01/23 01:56:25;;;;;;;8.57;6.20;;;10.10;99.90;;;10.15;69.01;95395.66;5089683;28;21198;-56
2023/01/23 01:58:52;;;;;;;6.63;5.33;;;10.10;99.90;;;10.15;69.09;95387.78;5088886;28;20470;-61
2023/01/23 02:01:21;;;;;;;11.43;5.83;;;10.20;99.90;;;10.15;69.07;95398.28;5089914;28;20525;-56
2023/01/23 02:03:49;;;;;;;5.67;5.03;;;10.20;99.90;;;10.16;69.04;95400.78;5087089;28;20985;-55
2023/01/23 02:06:16;;;;;;;12.33;5.87;;;10.20;99.90;;;10.17;69.38;95397.19;5094316;28;20464;-59
2023/01/23 02:08:52;;;;;;;8.70;5.60;;;10.20;99.90;;;10.18;69.09;95393.59;5088969;28;20474;-56
2023/01/23 02:11:20;;;;;;;5.60;4.93;;;10.20;99.90;;;10.20;69.00;95393.47;5096587;28;20444;-54
2023/01/23 02:13:47;;;;;;;5.57;4.70;;;10.20;99.90;;;10.19;68.92;95382.13;5090547;28;20484;-59
2023/01/23 02:16:17;;;;;;;6.30;4.00;;;10.20;99.90;;;10.19;69.01;95397.91;5098311;28;20518;-53
2023/01/23 02:18:48;;;;;;;5.03;3.83;;;10.20;99.90;;;10.17;69.16;95388.47;5091060;28;20497;-59
2023/01/23 02:21:17;;;;;;;4.30;3.90;;;10.20;99.90;;;10.16;69.25;95405.19;5097731;28;20441;-61
2023/01/23 02:24:02;;;;;;;6.17;4.90;;;10.20;99.90;;;10.16;69.15;95394.69;5090986;28;21001;-54
2023/01/23 02:26:32;;;;;;;6.83;4.17;;;10.20;99.90;;;10.15;68.90;95404.38;5092213;28;20977;-58
2023/01/23 02:29:00;;;;;;;4.70;3.33;;;10.20;99.90;;;10.16;68.99;95398.16;5088078;28;20470;-58
2023/01/23 02:31:27;;;;;;;5.47;3.87;;;10.20;99.90;;;10.12;69.14;95388.84;5087857;28;20518;-58
2023/01/23 02:33:56;;;;;;;4.40;4.00;;;10.20;99.90;;;10.11;69.14;95394.22;5087808;28;20472;-58
2023/01/23 02:36:27;;;;;;;3.87;3.50;;;10.10;99.90;;;10.08;69.55;95403.19;5087480;28;20465;-55
2023/01/23 02:39:01;;;;;;;5.27;3.87;;;10.10;99.90;;;10.07;69.33;95390.16;5089832;28;20480;-59
2023/01/23 02:41:31;;;;;;;5.97;4.00;;;10.10;99.90;;;10.07;69.51;95400.69;5092943;28;20452;-59
2023/01/23 02:44:01;;;;;;;4.87;4.00;;;10.10;99.90;;;10.08;69.62;95397.91;5093494;28;20501;-55
2023/01/23 02:46:28;;;;;;;7.97;3.90;;;10.10;99.90;;;10.09;69.47;95404.03;5093288;28;20513;-56
2023/01/23 02:48:56;;;;;;;4.60;4.20;;;10.10;99.90;;;10.06;69.90;95394.59;5095612;28;20473;-55
2023/01/23 02:51:24;;;;;;;5.40;4.77;;;10.10;99.90;;;10.05;69.98;95401.66;5093550;28;20650;-55
2023/01/23 02:53:51;;;;;;;4.20;3.80;;;10.10;99.90;;;10.05;69.54;95398.16;5097031;28;20462;-56
2023/01/23 02:56:18;;;;;;;7.00;4.63;;;10.10;99.90;;;10.02;69.67;95401.91;5089986;28;20542;-59
2023/01/23 03:01:34;;;;;;;3.33;3.13;;;10.00;99.90;;;9.95;70.04;95411.22;5091825;28;20444;-55
2023/01/23 03:04:03;;;;;;;4.67;4.07;;;10.00;99.90;;;9.91;70.34;95406.34;5093930;28;20493;-59
2023/01/23 03:06:35;;;;;;;7.23;3.40;;;10.00;99.90;;;9.89;70.17;95398.56;5093327;28;20476;-56
2023/01/23 03:09:06;;;;;;;3.10;2.90;;;9.90;99.90;;;9.87;70.20;95405.75;5089365;28;20493;-55
2023/01/23 03:11:33;;;;;;;4.70;3.13;;;9.90;99.90;;;9.80;70.30;95404.56;5086988;28;20434;-56
2023/01/23 03:14:02;;;;;;;3.53;3.23;;;9.90;99.90;;;9.78;70.58;95411.75;5087117;28;20573;-56
2023/01/23 03:16:29;;;;;;;4.80;2.70;;;9.80;99.90;;;9.73;70.37;95406.84;5086745;28;20951;-59
2023/01/23 03:19:00;;;;;;;3.63;3.27;;;9.80;99.90;;;9.73;70.29;95419.13;5086975;28;21178;-55
2023/01/23 03:21:28;;;;;;;2.73;2.53;;;9.80;99.90;;;9.72;70.44;95417.47;5094563;28;20630;-59
2023/01/23 03:23:55;;;;;;;2.73;2.50;;;9.80;99.90;;;9.71;70.59;95419.25;5095216;28;20629;-56
2023/01/23 03:26:23;;;;;;;3.17;2.90;;;9.80;99.90;;;9.68;70.57;95428.22;5091396;28;20453;-59
2023/01/23 03:31:36;;;;;;;3.53;2.47;;;9.70;99.90;;;9.63;70.52;95416.41;5091244;28;20452;-58
2023/01/23 03:34:03;;;;;;;3.20;2.90;;;9.70;99.90;;;9.61;70.50;95421.78;5087792;28;20484;-54
2023/01/23 03:36:31;;;;;;;2.27;2.07;;;9.70;99.90;;;9.59;70.55;95410.56;5091807;28;20454;-59
2023/01/23 03:41:44;;;;;;;2.17;2.07;;;9.70;99.90;;;9.57;70.51;95417.69;5092853;28;21034;-59
2023/01/23 03:44:11;;;;;;;2.47;2.37;;;9.60;99.90;;;9.56;70.38;95418.69;5089185;28;20520;-59
2023/01/23 03:46:40;;;;;;;1.70;1.60;;;9.60;99.90;;;9.57;70.37;95419.50;5092516;28;20453;-57
2023/01/23 03:49:07;;;;;;;1.70;1.60;;;9.60;99.90;;;9.57;70.24;95424.75;5094151;28;20473;-54
2023/01/23 03:51:35;;;;;;;2.53;2.33;;;9.70;99.90;;;9.57;70.62;95424.75;5091854;28;20945;-57
2023/01/23 03:54:02;;;;;;;3.33;2.93;;;9.60;99.90;;;9.56;70.65;95429.19;5094430;27;20538;-56
2023/01/23 03:56:29;;;;;;;2.33;2.23;;;9.60;99.90;;;9.58;70.43;95416.75;5091886;28;20449;-56
2023/01/23 03:58:57;;;;;;;3.17;2.93;;;9.60;99.90;;;9.60;70.92;95417.47;5090468;27;20473;-58
2023/01/23 04:01:25;;;;;;;3.37;3.07;;;9.70;99.90;;;9.61;70.38;95419.16;5092317;28;20454;-58
2023/01/23 04:03:53;;;;;;;3.80;3.50;;;9.60;99.90;;;9.64;70.73;95421.53;5089171;28;20973;-58
2023/01/23 04:06:21;;;;;;;3.83;3.53;;;9.70;99.90;;;9.65;70.62;95428.47;5086147;28;20450;-60
2023/01/23 04:08:48;;;;;;;3.97;3.00;;;9.70;99.90;;;9.65;70.62;95428.47;5090565;28;20462;-58
2023/01/23 04:11:15;;;;;;;4.67;3.83;;;9.70;99.90;;;9.63;70.56;95422.47;5087827;28;20871;-60
2023/01/23 04:13:42;;;;;;;3.93;3.50;;;9.70;99.90;;;9.61;70.44;95427.03;5091509;28;20910;-59
2023/01/23 04:16:10;;;;;;;6.40;3.90;;;9.70;99.90;;;9.60;70.46;95446.34;5095252;28;20474;-60
2023/01/23 04:18:37;;;;;;;6.80;3.80;;;9.70;99.90;;;9.59;70.57;95428.94;5089192;28;20871;-59
2023/01/23 04:21:06;;;;;;;5.10;4.00;;;9.70;99.90;;;9.57;70.46;95436.09;5096841;28;21016;-59
2023/01/23 04:23:33;;;;;;;6.77;3.70;;;9.70;99.90;;;9.55;70.59;95435.38;5088888;28;20466;-55
2023/01/23 04:26:00;;;;;;;9.50;3.73;;;9.60;99.90;;;9.51;70.71;95436.56;5096395;28;20453;-59
2023/01/23 04:28:27;;;;;;;3.93;3.63;;;9.60;99.90;;;9.48;70.67;95437.66;5088724;28;20998;-58
2023/01/23 04:30:55;;;;;;;4.83;3.50;;;9.60;99.90;;;9.45;70.54;95443.16;5095864;28;20510;-57
2023/01/23 04:33:22;;;;;;;5.67;3.17;;;9.60;99.90;;;9.46;70.66;95422.97;5088141;28;20465;-60
2023/01/23 04:35:51;;;;;;;5.43;3.97;;;9.50;99.90;;;9.47;70.62;95440.41;5096381;28;20831;-57
2023/01/23 04:38:20;;;;;;;6.63;4.53;;;9.50;99.90;;;9.46;70.90;95452.66;5088777;28;20981;-59
2023/01/23 04:40:47;;;;;;;22.67;12.90;;;9.50;99.90;;;9.42;70.65;95448.63;5095384;28;20456;-57
2023/01/23 04:43:14;;;;;;;7.77;4.20;;;9.50;99.90;;;9.45;70.45;95458.03;5088795;28;20846;-55
2023/01/23 04:45:42;;;;;;;8.30;6.00;;;9.50;99.90;;;9.45;70.33;95466.78;5095324;28;20542;-59
2023/01/23 04:48:10;;;;;;;3.27;2.97;;;9.50;99.90;;;9.47;70.37;95467.47;5088316;28;20545;-56
2023/01/23 04:50:37;;;;;;;2.07;1.80;;;9.50;99.90;;;9.49;70.31;95459.50;5090476;28;20457;-59
2023/01/23 04:53:05;;;;;;;2.43;2.23;;;9.50;99.90;;;9.48;70.05;95468.31;5094592;28;21199;-58
2023/01/23 04:55:34;;;;;;;2.57;2.27;;;9.50;99.90;;;9.46;70.22;95464.97;5091740;28;21016;-56
2023/01/23 04:58:01;;;;;;;2.03;1.70;;;9.50;99.90;;;9.44;70.08;95462.47;5087535;28;20565;-56
2023/01/23 05:00:29;;;;;;;2.60;2.40;;;9.50;99.90;;;9.42;69.97;95461.75;5087913;28;20454;-59
2023/01/23 05:02:57;;;;;;;3.00;2.33;;;9.50;99.90;;;9.41;69.96;95473.22;5084991;28;20563;-58
2023/01/23 05:05:24;;;;;;;5.63;2.30;;;9.50;99.90;;;9.40;70.21;95453.16;5084729;28;20496;-57
2023/01/23 05:07:51;;;;;;;4.63;2.80;;;9.50;99.90;;;9.39;70.25;95469.00;5085109;28;20466;-59
2023/01/23 05:10:19;;;;;;;3.23;2.57;;;9.50;99.90;;;9.36;70.35;95482.38;5089210;28;20623;-59
2023/01/23 05:12:48;;;;;;;2.97;2.47;;;9.50;99.90;;;9.30;70.52;95470.56;5089644;28;20476;-60
2023/01/23 05:15:16;;;;;;;4.07;2.80;;;9.40;99.90;;;9.27;70.61;95470.81;5085068;28;20457;-59
2023/01/23 05:17:43;;;;;;;3.50;2.97;;;9.40;99.90;;;9.24;70.99;95471.03;5091747;28;20500;-57
2023/01/23 05:20:11;;;;;;;6.17;3.37;;;9.30;99.90;;;9.23;70.85;95490.34;5087570;28;20526;-56
2023/01/23 05:22:50;;;;;;;4.47;3.23;;;9.30;99.90;;;9.21;70.59;95500.97;5086279;28;20482;-55
2023/01/23 05:25:19;;;;;;;3.47;3.17;;;9.30;99.90;;;9.20;71.16;95501.94;5086770;28;20493;-57
2023/01/23 05:27:48;;;;;;;6.03;4.73;;;9.30;99.90;;;9.23;71.58;95506.94;5093311;28;20561;-57
2023/01/23 05:30:15;;;;;;;7.70;4.20;;;9.30;99.90;;;9.26;71.65;95496.19;5091844;28;20990;-57
2023/01/23 05:32:43;;;;;;;3.87;2.80;;;9.30;99.90;;;9.29;71.01;95509.09;5085474;28;20473;-57
2023/01/23 05:35:10;;;;;;;5.60;2.90;;;9.30;99.90;;;9.32;71.21;95515.91;5087011;28;20487;-57
2023/01/23 05:37:37;;;;;;;4.10;3.10;;;9.40;99.90;;;9.33;70.93;95515.78;5092958;28;21560;-55
2023/01/23 05:40:07;;;;;;;4.67;3.50;;;9.40;99.90;;;9.35;70.74;95520.94;5086756;28;20454;-55
2023/01/23 05:42:34;;;;;;;5.23;2.97;;;9.40;99.90;;;9.36;70.68;95520.00;5087271;28;20460;-61
2023/01/23 05:45:03;;;;;;;5.30;2.63;;;9.40;99.90;;;9.39;70.91;95508.41;5090430;28;20489;-56
2023/01/23 05:47:30;;;;;;;2.47;2.10;;;9.40;99.90;;;9.42;70.70;95516.03;5094043;28;20441;-56
2023/01/23 05:49:57;;;;;;;4.27;2.60;;;9.40;99.90;;;9.43;70.60;95509.84;5096469;28;20469;-62
2023/01/23 05:52:25;;;;;;;3.43;2.67;;;9.50;99.90;;;9.45;70.56;95505.31;5095265;28;20458;-57
2023/01/23 05:54:52;;;;;;;3.40;3.03;;;9.50;99.90;;;9.45;70.44;95506.16;5100508;28;20445;-54
2023/01/23 05:57:19;;;;;;;2.97;2.67;;;9.50;99.90;;;9.47;70.61;95504.25;5093829;28;20515;-56
2023/01/23 05:59:46;;;;;;;2.90;2.43;;;9.50;99.90;;;9.48;70.50;95499.81;5098337;28;20458;-54
2023/01/23 06:02:15;;;;;;;5.37;3.73;;;9.50;99.90;;;9.50;70.21;95508.44;5091620;28;20450;-57
2023/01/23 06:04:42;;;;;;;7.07;3.40;;;9.50;99.90;;;9.51;70.31;95518.81;5096235;28;20488;-55
2023/01/23 06:07:12;;;;;;;5.47;3.00;;;9.60;99.90;;;9.52;70.39;95517.84;5094854;28;20953;-56
2023/01/23 06:09:40;;;;;;;3.90;2.70;;;9.60;99.90;;;9.52;70.30;95527.53;5092135;28;20538;-58
2023/01/23 06:12:07;;;;;;;3.37;2.97;;;9.50;99.90;;;9.52;70.01;95523.09;5094072;28;20961;-58
2023/01/23 06:14:35;;;;;;;3.50;3.20;;;9.60;99.90;;;9.53;70.11;95529.22;5096049;28;20469;-57
2023/01/23 06:17:02;;;;;;;5.60;3.43;;;9.60;99.90;;;9.52;69.96;95512.59;5093865;28;20464;-58
2023/01/23 06:19:31;;;;;;;4.90;3.77;;;9.60;99.90;;;9.53;69.66;95529.22;5095480;28;20476;-57
2023/01/23 06:21:58;;;;;;;3.27;2.57;;;9.60;99.90;;;9.53;69.89;95531.84;5088236;28;20449;-57
2023/01/23 06:24:26;;;;;;;4.03;3.63;;;9.50;99.90;;;9.52;69.78;95528.34;5087809;28;20481;-57
2023/01/23 06:26:53;;;;;;;3.00;2.80;;;9.50;99.90;;;9.53;69.85;95529.22;5088329;28;20461;-57
2023/01/23 06:29:20;;;;;;;8.23;3.27;;;9.60;99.90;;;9.53;69.79;95542.34;5088415;28;20497;-59
2023/01/23 06:31:48;;;;;;;2.83;2.63;;;9.60;99.90;;;9.51;69.83;95550.34;5087459;28;20473;-60
2023/01/23 06:34:15;;;;;;;3.00;2.80;;;9.60;99.90;;;9.51;69.73;95557.34;5095010;28;20487;-59
2023/01/23 06:36:45;;;;;;;2.67;2.47;;;9.60;99.90;;;9.49;69.69;95543.50;5093211;28;20477;-57
2023/01/23 06:39:14;;;;;;;3.17;2.80;;;9.60;99.90;;;9.48;69.68;95539.19;5094718;28;20457;-58
2023/01/23 06:41:41;;;;;;;5.33;3.40;;;9.50;99.90;;;9.49;69.78;95548.75;5095888;28;20954;-64
2023/01/23 06:44:08;;;;;;;4.90;3.60;;;9.50;99.90;;;9.48;69.56;95544.47;5094815;28;20465;-57
2023/01/23 06:46:36;;;;;;;4.53;3.67;;;9.50;99.90;;;9.48;69.82;95531.31;5095059;28;20561;-57
2023/01/23 06:49:03;;;;;;;6.27;3.80;;;9.50;99.90;;;9.45;69.93;95544.69;5092221;28;20470;-60
2023/01/23 06:51:30;;;;;;;5.20;4.20;;;9.50;99.90;;;9.42;70.06;95552.78;5097010;28;20456;-55
2023/01/23 06:53:59;;;;;;;4.93;4.27;;;9.50;99.90;;;9.40;70.16;95554.72;5098576;28;20538;-58
2023/01/23 06:56:26;;;;;;;11.90;3.70;;;9.40;99.90;;;9.36;70.69;95580.38;5093858;28;20465;-59
2023/01/23 06:58:54;;;;;;;5.10;4.50;;;9.40;99.90;;;9.32;70.47;95579.75;5091261;28;20478;-57
2023/01/23 07:01:21;;;;;;;7.90;4.57;;;9.40;99.90;;;9.31;70.58;95585.09;5096191;28;20921;-56
2023/01/23 07:03:48;;;;;;;8.00;5.10;;;9.40;99.90;;;9.29;70.40;95590.47;5090371;28;21009;-59
2023/01/23 07:06:16;;;;;;;6.43;4.67;;;9.40;99.90;;;9.29;70.91;95613.25;5096604;28;20496;-60
2023/01/23 07:08:43;;;;;;;11.90;6.90;;;9.30;99.90;;;9.25;70.49;95596.06;5093280;28;20465;-58
2023/01/23 07:11:12;;;;;;;9.40;6.07;;;9.30;99.90;;;9.24;70.96;95589.97;5095996;28;20972;-59
2023/01/23 07:13:39;;;;;;;8.30;4.93;;;9.30;99.90;;;9.22;71.10;95610.28;5091111;28;20462;-60
2023/01/23 07:16:07;;;;;;;8.10;5.13;;;9.30;99.90;;;9.20;71.38;95599.06;5091064;28;20458;-57
2023/01/23 07:18:34;;;;;;;7.83;5.97;;;9.30;99.90;;;9.19;71.58;95604.41;5096736;28;20469;-57
2023/01/23 07:21:05;;;;;;;9.70;5.43;;;9.20;99.90;;;9.14;71.37;95617.88;5091419;28;20958;-58
2023/01/23 07:23:33;;;;;;;7.80;6.27;;;9.20;99.90;;;9.10;71.29;95605.91;5096914;28;20580;-58
2023/01/23 07:26:00;;;;;;;7.73;5.33;;;9.20;99.90;;;9.07;71.32;95599.09;5090945;28;20489;-57
2023/01/23 07:28:29;;;;;;;11.10;7.30;;;9.10;99.90;;;9.06;71.22;95609.72;5097091;28;20477;-59
2023/01/23 07:30:58;;;;;;;10.57;6.63;;;9.10;99.90;;;9.03;71.23;95621.28;5089677;28;20456;-56
2023/01/23 07:33:25;;;;;;;10.90;6.50;;;9.10;99.90;;;9.00;71.43;95631.16;5086699;28;20549;-57
2023/01/23 07:35:52;;;;;;;11.50;6.80;;;9.10;99.90;;;8.94;71.56;95625.41;5087270;28;20529;-59
2023/01/23 07:38:22;;;;;;;10.87;6.83;;;9.10;99.90;;;8.90;72.09;95626.56;5094127;28;20545;-57
2023/01/23 07:40:49;;;;;;;8.57;6.40;;;9.00;99.90;;;8.85;72.03;95620.81;5093556;28;20891;-59
2023/01/23 07:43:16;;;;;;;17.83;7.13;;;9.00;99.90;;;8.81;72.44;95632.47;5097745;28;21030;-57
2023/01/23 07:45:45;;;;;;;9.47;6.47;;;8.90;99.90;;;8.78;72.16;95627.44;5093394;28;20492;-57
2023/01/23 07:48:12;;;;;;;7.73;5.90;;;8.90;99.90;;;8.75;72.43;95632.91;5094862;28;20526;-59
2023/01/23 07:50:39;;;;;;;7.77;6.50;;;8.90;99.90;;;8.72;72.79;95631.38;5089736;28;20457;-56
2023/01/23 07:53:07;;;;;;;16.43;7.20;;;8.90;99.90;;;8.72;72.88;95627.88;5097570;28;20496;-59
2023/01/23 07:55:34;;;;;;;10.60;6.60;;;8.80;99.90;;;8.68;73.16;95619.41;5095195;28;21305;-56
2023/01/23 07:58:01;;;;;;;7.60;6.70;;;8.80;99.90;;;8.66;73.07;95638.81;5096345;28;20472;-56
2023/01/23 08:00:29;;;;;;;9.13;7.13;;;8.80;99.90;;;8.65;73.22;95637.16;5088490;28;20974;-58
2023/01/23 08:02:58;;;;;;;8.40;6.60;;;8.80;99.90;;;8.65;73.17;95626.66;5090437;28;20486;-56
2023/01/23 08:05:25;;;;;;;7.80;6.53;;;8.80;99.90;;;8.67;73.11;95645.75;5095020;28;20489;-57
2023/01/23 08:07:52;;;;;;;10.20;6.40;;;8.80;99.90;;;8.66;73.46;95628.31;5090482;28;20467;-58
2023/01/23 08:10:20;;;;;;;10.13;6.43;;;8.80;99.90;;;8.65;73.07;95626.66;5092563;28;20454;-56
2023/01/23 08:12:47;;;;;;;9.13;6.83;;;8.80;99.90;;;8.67;73.31;95666.72;5089801;28;20526;-60
2023/01/23 08:15:14;;;;;;;7.97;6.07;;;8.80;99.90;;;8.65;73.49;95658.97;5095708;28;20446;-56
2023/01/23 08:17:42;;;;;;;8.93;5.77;;;8.80;99.90;;;8.64;73.48;95648.59;5093746;28;20473;-59
2023/01/23 08:20:11;;;;;;;8.97;6.00;;;8.70;99.90;;;8.62;73.91;95640.81;5095788;28;20856;-57
2023/01/23 08:22:39;;;;;;;8.73;6.37;;;8.70;99.90;;;8.65;73.25;95663.38;5090011;28;20469;-57
2023/01/23 08:25:08;;;;;;;9.77;6.67;;;8.70;99.90;;;8.66;73.24;95670.28;5095991;28;20497;-57
2023/01/23 08:27:36;;;;;;;5.93;5.13;;;8.80;99.90;;;8.66;72.92;95655.41;5089333;28;20450;-59
2023/01/23 08:30:03;;;;;;;10.90;5.40;;;8.80;99.90;;;8.69;72.85;95672.69;5094788;28;20544;-58
2023/01/23 08:32:31;;;;;;;10.10;6.43;;;8.80;99.90;;;8.73;72.92;95671.53;5088041;28;21129;-57
2023/01/23 08:34:58;;;;;;;8.07;5.00;;;8.80;99.90;;;8.74;72.81;95665.34;5091876;28;20453;-60
2023/01/23 08:37:27;;;;;;;8.97;4.93;;;8.80;99.90;;;8.72;72.46;95686.44;5089454;28;20453;-55
2023/01/23 08:39:54;;;;;;;8.20;5.50;;;8.80;99.90;;;8.69;72.30;95654.31;5091877;28;20445;-59
2023/01/23 08:42:21;;;;;;;6.50;5.53;;;8.80;99.90;;;8.68;72.03;95655.28;5088849;28;20454;-55
2023/01/23 08:44:49;;;;;;;7.03;5.97;;;8.80;99.90;;;8.71;72.17;95655.06;5090692;28;20455;-59
2023/01/23 08:47:16;;;;;;;9.53;5.00;;;8.80;99.90;;;8.75;71.86;95638.16;5092011;28;20485;-58
2023/01/23 08:49:43;;;;;;;9.00;4.63;;;8.80;99.90;;;8.75;71.72;95646.88;5095867;28;20453;-56
2023/01/23 08:52:10;;;;;;;4.27;3.80;;;8.90;99.90;;;8.76;71.36;95660.81;5088738;28;20458;-56
2023/01/23 08:54:39;;;;;;;5.80;4.10;;;8.80;99.90;;;8.76;70.79;95655.56;5093410;28;21024;-57
2023/01/23 08:57:06;;;;;;;6.43;4.90;;;8.90;99.90;;;8.75;71.00;95653.91;5089440;28;20522;-57
2023/01/23 08:59:33;;;;;;;4.60;4.20;;;8.90;99.90;;;8.75;70.86;95643.41;5095200;28;21115;-55
2023/01/23 09:02:01;;;;;;;4.77;4.33;;;8.80;99.90;;;8.76;70.48;95666.06;5091386;28;20442;-55
2023/01/23 09:04:28;;;;;;;5.30;4.43;;;8.90;99.90;;;8.77;70.48;95652.03;5094276;28;20477;-60
2023/01/23 09:06:56;;;;;;;8.13;4.10;;;8.90;99.90;;;8.77;69.95;95694.81;5092520;28;20921;-58
2023/01/23 09:09:23;;;;;;;11.40;3.83;;;8.80;99.90;;;8.75;69.71;95669.63;5090684;28;20470;-56
2023/01/23 09:11:51;;;;;;;4.27;3.87;;;8.90;99.90;;;8.73;69.72;95680.22;5085283;28;20450;-55
2023/01/23 09:14:19;;;;;;;12.50;3.40;;;8.90;99.90;;;8.71;69.64;95671.63;5085620;28;20466;-57
2023/01/23 09:16:46;;;;;;;4.20;3.70;;;8.90;99.90;;;8.74;69.76;95647.00;5087552;28;20454;-60
2023/01/23 09:19:14;;;;;;;4.37;3.97;;;8.80;99.90;;;8.75;69.48;95646.03;5089708;28;20801;-55
2023/01/23 09:21:41;;;;;;;4.93;4.00;;;8.80;99.90;;;8.77;69.48;95652.03;5089574;28;20454;-55
2023/01/23 09:24:09;;;;;;;3.87;3.40;;;8.90;99.90;;;8.81;69.09;95665.75;5094601;28;20583;-56
2023/01/23 09:26:36;;;;;;;5.00;3.53;;;8.90;99.90;;;8.84;69.20;95668.97;5097333;28;20493;-59
2023/01/23 09:29:05;;;;;;;6.30;4.47;;;8.90;99.90;;;8.90;69.19;95657.22;5093350;28;20484;-59
2023/01/23 09:31:32;;;;;;;5.00;3.53;;;9.00;99.90;;;8.95;68.97;95678.72;5094192;28;20445;-56
2023/01/23 09:33:59;;;;;;;10.60;4.07;;;9.00;99.90;;;8.96;68.62;95654.97;5094471;28;20470;-58
2023/01/23 09:36:27;;;;;;;6.67;3.40;;;9.10;99.90;;;8.99;68.32;95653.09;5097179;28;20454;-58
2023/01/23 09:38:54;;;;;;;9.23;3.70;;;9.10;99.90;;;9.02;68.33;95661.59;5093681;28;20458;-62
2023/01/23 09:41:24;;;;;;;8.30;3.20;;;9.10;99.90;;;9.01;68.02;95662.53;5097934;28;20453;-61
2023/01/23 09:43:57;;;;;;;14.10;3.40;;;9.10;99.90;;;9.01;67.83;95656.44;5092590;28;20531;-59
2023/01/23 09:46:27;;;;;;;4.83;3.30;;;9.10;99.90;;;9.01;67.71;95680.06;5096480;28;20590;-56
2023/01/23 09:48:59;;;;;;;4.87;3.77;;;9.10;99.90;;;9.00;67.99;95666.13;5090302;28;20547;-59
2023/01/23 09:51:30;;;;;;;4.13;3.50;;;9.10;99.90;;;8.99;67.76;95661.81;5099631;28;20464;-60
2023/01/23 09:54:00;;;;;;;4.23;3.70;;;9.10;99.90;;;9.00;68.23;95649.50;5100367;28;20891;-58
2023/01/23 09:56:32;;;;;;;3.80;3.50;;;9.10;99.90;;;9.01;68.14;95665.16;5093709;28;20523;-55
2023/01/23 09:59:08;;;;;;;4.70;3.27;;;9.10;99.90;;;9.04;68.12;95670.19;5097179;28;20621;-59
2023/01/23 10:01:37;;;;;;;4.87;3.43;;;9.10;99.90;;;9.06;67.98;95681.41;5097277;28;20445;-61
2023/01/23 10:04:05;;;;;;;2.87;2.67;;;9.10;99.90;;;9.09;68.08;95690.84;5097890;28;20537;-56
2023/01/23 10:06:38;;;;;;;3.97;3.60;;;9.10;99.90;;;9.08;68.11;95676.88;5092672;28;20936;-59
2023/01/23 10:09:35;;;;;;;4.80;3.50;;;9.20;99.90;;;9.05;67.93;95671.84;5092607;28;20470;-54
2023/01/23 10:12:06;;;;;;;7.47;4.33;;;9.10;99.90;;;9.05;68.33;95669.22;5095431;28;20992;-56
2023/01/23 10:14:52;;;;;;;3.70;3.40;;;9.10;99.90;;;9.03;68.25;95665.91;5095456;28;20915;-55
2023/01/23 10:17:25;;;;;;;3.90;3.60;;;9.10;99.90;;;9.00;68.14;95678.38;5098449;28;20452;-59
2023/01/23 10:20:17;;;;;;;7.60;4.90;;;9.10;99.90;;;8.93;68.12;95678.00;5095394;28;20460;-60
2023/01/23 10:22:47;;;;;;;10.07;6.13;;;9.10;99.90;;;8.86;68.15;95685.47;5096607;28;20799;-57
2023/01/23 10:25:18;;;;;;;7.10;5.00;;;9.00;99.90;;;8.82;68.70;95668.25;5088481;28;20442;-60
2023/01/23 10:27:46;;;;;;;7.00;4.97;;;9.00;99.90;;;8.81;68.73;95674.44;5091337;28;20550;-56
2023/01/23 10:30:33;;;;;;;8.30;5.60;;;8.90;99.90;;;8.77;68.86;95665.13;5092443;28;20848;-59
2023/01/23 10:33:08;;;;;;;7.23;4.53;;;8.90;99.90;;;8.75;68.75;95674.88;5094223;28;20496;-59
2023/01/23 10:35:46;;;;;;;7.90;5.17;;;8.90;99.90;;;8.75;69.15;95680.13;5093679;28;20442;-56
2023/01/23 10:38:27;;;;;;;6.93;4.70;;;8.80;99.90;;;8.73;69.49;95674.97;5097024;28;20477;-56
2023/01/23 10:43:42;;;;;;;6.87;4.33;;;8.80;99.90;;;8.70;69.68;95672.56;5091956;28;20502;-55
2023/01/23 10:46:12;;;;;;;6.23;5.33;;;8.80;99.90;;;8.70;69.35;95671.75;5093408;28;20953;-61